Holbrook, Nebraska
Current Conditions -  °F | °C
As of 4:53 PM on Saturday 22 Nov 2014 (Local Time) from KMCK Reporting Station
Clear Clear  
Wind Chill: 18°   Ceiling: Unl
Heat Index: 18°   Visibility: 10mi
Dew Point: -5°   Wind: 12mph
Humidity: 21%   Direction: 160°SSE
Pressure: 29.51"   Gusts: NA
Location:  40.3°N, 100.01°W
Report Text: KMCK 222253Z AUTO 16010KT 10SM CLR 18/M05 A2951 RMK AO2 SLP995 T01781050
Loading
Personal Weather Stations






























Interactive Weather Map New forecast layout! Learn more

10-Day Weather Forecast

Advertisements
Track Severe Weather on mobile